Time;durP1;ratioP1;P1;durP2;ratioP2;P2;SDS_P1;SDS_P2;PMS_P1;PMS_P2;Temp;Humidity;BMP_temperature;BMP_pressure;BME280_temperature;BME280_humidity;BME280_pressure;Samples;Min_cycle;Max_cycle;Signal;HPM_P1;HPM_P2
2022/10/18 02:47:03;;;;;;;4.95;1.63;;;12.80;99.90;;;;;;5557922;23;87957;-80
2022/10/18 02:49:29;;;;;;;4.65;1.70;;;12.80;99.90;;;;;;4915365;28;86316;-78
2022/10/18 02:51:55;;;;;;;4.50;2.22;;;12.80;99.90;;;;;;4918329;28;87404;-78
2022/10/18 02:54:21;;;;;;;4.90;1.70;;;12.80;99.90;;;;;;4918836;28;87949;-78
2022/10/18 02:56:47;;;;;;;5.35;1.80;;;12.80;99.90;;;;;;4918653;28;86335;-79
2022/10/18 02:59:12;;;;;;;9.45;1.63;;;12.70;99.90;;;;;;4920833;28;86910;-76
2022/10/18 03:01:38;;;;;;;5.85;1.60;;;12.70;99.90;;;;;;4899271;28;86894;-77
2022/10/18 03:04:04;;;;;;;7.25;2.28;;;12.70;99.90;;;;;;4899440;28;87246;-77
2022/10/18 03:06:30;;;;;;;6.47;1.70;;;12.80;99.90;;;;;;4916967;28;87645;-81
2022/10/18 03:08:56;;;;;;;10.13;1.95;;;12.80;99.90;;;;;;4921579;28;85633;-77
2022/10/18 03:11:22;;;;;;;8.68;2.08;;;12.80;99.90;;;;;;4926662;28;86722;-77
2022/10/18 03:13:49;;;;;;;4.57;1.60;;;12.70;99.90;;;;;;4926474;28;86970;-76
2022/10/18 03:16:15;;;;;;;4.35;1.75;;;12.70;99.90;;;;;;4940314;28;87919;-76
2022/10/18 03:18:41;;;;;;;3.95;1.33;;;12.70;99.90;;;;;;4920673;28;86859;-76
2022/10/18 03:21:07;;;;;;;3.92;1.13;;;12.70;99.90;;;;;;4921808;28;86527;-77
2022/10/18 03:23:33;;;;;;;5.53;1.60;;;12.70;99.90;;;;;;4917063;28;86605;-77
2022/10/18 03:25:59;;;;;;;6.32;1.60;;;12.70;99.90;;;;;;4923854;28;86366;-77
2022/10/18 03:28:25;;;;;;;4.82;1.45;;;12.80;99.90;;;;;;4921050;28;86569;-76
2022/10/18 03:30:50;;;;;;;3.92;1.40;;;12.80;99.90;;;;;;4921489;28;86812;-78
2022/10/18 03:33:16;;;;;;;5.15;1.63;;;12.80;99.90;;;;;;4920993;28;86191;-76
2022/10/18 03:35:42;;;;;;;9.05;2.03;;;12.70;99.90;;;;;;4905412;28;87161;-78
2022/10/18 03:38:08;;;;;;;7.22;1.52;;;12.70;99.90;;;;;;4907126;28;86885;-79
2022/10/18 03:40:33;;;;;;;4.05;1.38;;;12.70;99.90;;;;;;4918571;28;89795;-76
2022/10/18 03:42:59;;;;;;;7.43;1.60;;;12.60;99.90;;;;;;4921073;28;87031;-78
2022/10/18 03:45:25;;;;;;;7.40;1.45;;;12.70;99.90;;;;;;4908037;28;86905;-79
2022/10/18 03:47:51;;;;;;;6.07;1.75;;;12.60;99.90;;;;;;4912078;28;86262;-78
2022/10/18 03:50:16;;;;;;;5.60;1.77;;;12.60;99.90;;;;;;4907020;28;87738;-77
2022/10/18 03:52:42;;;;;;;5.40;1.90;;;12.60;99.90;;;;;;4892524;28;87423;-77
2022/10/18 03:55:08;;;;;;;7.97;1.80;;;12.70;99.90;;;;;;4901751;28;86693;-79
2022/10/18 03:57:33;;;;;;;6.43;1.35;;;12.70;99.90;;;;;;4901838;28;86139;-78
2022/10/18 03:59:59;;;;;;;4.18;1.58;;;12.70;99.90;;;;;;4893378;28;87324;-77
2022/10/18 04:02:25;;;;;;;5.35;1.40;;;12.70;99.90;;;;;;4885503;28;88252;-77
2022/10/18 04:04:51;;;;;;;5.80;1.75;;;12.70;99.90;;;;;;4892203;28;87938;-76
2022/10/18 04:07:17;;;;;;;4.82;1.35;;;12.80;99.90;;;;;;4884300;28;87055;-78
2022/10/18 04:09:43;;;;;;;6.65;1.48;;;12.80;99.90;;;;;;4882573;28;86957;-76
2022/10/18 04:12:09;;;;;;;4.22;1.30;;;12.80;99.90;;;;;;4883779;28;87515;-77
2022/10/18 04:14:34;;;;;;;7.53;1.67;;;12.80;99.90;;;;;;4889623;28;86797;-78
2022/10/18 04:17:00;;;;;;;6.38;1.27;;;12.60;99.90;;;;;;4896854;28;86955;-76
2022/10/18 04:19:26;;;;;;;8.75;1.90;;;12.50;99.90;;;;;;4885631;28;86538;-76
2022/10/18 04:21:52;;;;;;;4.80;1.60;;;12.40;99.90;;;;;;4910057;28;86893;-78
2022/10/18 04:24:18;;;;;;;6.25;1.50;;;12.30;99.90;;;;;;4891559;28;86453;-76
2022/10/18 04:26:44;;;;;;;6.78;2.03;;;12.40;99.90;;;;;;4893305;28;86317;-77
2022/10/18 04:29:09;;;;;;;6.80;1.80;;;12.40;99.90;;;;;;4892412;28;88077;-78
2022/10/18 04:31:35;;;;;;;8.82;1.55;;;12.40;99.90;;;;;;4896164;28;87800;-76
2022/10/18 04:34:03;;;;;;;6.97;1.60;;;12.30;99.90;;;;;;4888684;28;87421;-77
2022/10/18 04:36:29;;;;;;;5.93;1.30;;;12.30;99.90;;;;;;4885992;28;86924;-77
2022/10/18 04:38:55;;;;;;;6.95;1.73;;;12.30;99.90;;;;;;4886857;28;86633;-76
2022/10/18 04:41:21;;;;;;;6.78;1.85;;;12.30;99.90;;;;;;4896193;28;86653;-76
2022/10/18 04:43:46;;;;;;;8.43;1.52;;;12.30;99.90;;;;;;4881872;28;86786;-75
2022/10/18 04:46:12;;;;;;;5.63;1.55;;;12.40;99.90;;;;;;4894097;28;86592;-79
2022/10/18 04:48:38;;;;;;;9.35;1.40;;;12.40;99.90;;;;;;4885531;28;87174;-77
2022/10/18 04:51:04;;;;;;;9.20;1.63;;;12.50;99.90;;;;;;4883403;28;87563;-77
2022/10/18 04:53:30;;;;;;;5.50;1.77;;;12.60;99.90;;;;;;4889320;28;88484;-77
2022/10/18 04:55:56;;;;;;;5.10;1.50;;;12.70;99.90;;;;;;4889863;28;87805;-78
2022/10/18 04:58:21;;;;;;;6.20;1.60;;;12.60;99.90;;;;;;4891199;28;87472;-78
2022/10/18 05:00:47;;;;;;;6.60;1.52;;;12.70;99.90;;;;;;4889349;28;86955;-77
2022/10/18 05:03:13;;;;;;;4.13;1.60;;;12.70;99.90;;;;;;4893707;28;86571;-76
2022/10/18 05:05:39;;;;;;;6.57;1.90;;;12.70;99.90;;;;;;4891595;28;86190;-77
2022/10/18 05:08:05;;;;;;;5.70;2.10;;;12.50;99.90;;;;;;4895012;28;87446;-76
2022/10/18 05:10:31;;;;;;;6.93;1.92;;;12.50;99.90;;;;;;4886429;28;86805;-77
2022/10/18 05:12:57;;;;;;;13.98;1.80;;;12.40;99.90;;;;;;4882132;28;86811;-77
2022/10/18 05:15:23;;;;;;;6.85;1.73;;;12.40;99.90;;;;;;4889210;28;86386;-76
2022/10/18 05:17:48;;;;;;;6.75;1.90;;;12.40;99.90;;;;;;4888218;28;88005;-76
2022/10/18 05:20:14;;;;;;;8.70;1.65;;;12.40;99.90;;;;;;4878601;28;89382;-77
2022/10/18 05:22:40;;;;;;;9.23;1.70;;;12.40;99.90;;;;;;4884506;28;86743;-77
2022/10/18 05:25:06;;;;;;;9.45;1.33;;;12.50;99.90;;;;;;4886349;28;86665;-78
2022/10/18 05:27:32;;;;;;;6.93;1.35;;;12.50;99.90;;;;;;4885209;28;87051;-77
2022/10/18 05:29:58;;;;;;;8.07;1.42;;;12.40;99.90;;;;;;4893437;28;86773;-78
2022/10/18 05:32:23;;;;;;;8.48;1.50;;;12.40;99.90;;;;;;4889102;28;88915;-76
2022/10/18 05:34:49;;;;;;;12.35;1.92;;;12.40;99.90;;;;;;4893742;28;86498;-77
2022/10/18 05:37:15;;;;;;;4.93;1.60;;;12.50;99.90;;;;;;4890649;28;87307;-77
2022/10/18 05:39:40;;;;;;;3.67;1.40;;;12.40;99.90;;;;;;4893742;28;86293;-78
2022/10/18 05:42:07;;;;;;;6.63;2.10;;;12.40;99.90;;;;;;4897087;28;87837;-77
2022/10/18 05:44:33;;;;;;;6.22;1.77;;;12.40;99.90;;;;;;4895002;28;86768;-78
2022/10/18 05:46:59;;;;;;;10.45;1.92;;;12.40;99.90;;;;;;4882277;28;87185;-79
2022/10/18 05:49:24;;;;;;;5.38;1.58;;;12.50;99.90;;;;;;4893479;28;87044;-76
2022/10/18 05:51:50;;;;;;;6.28;1.48;;;12.60;99.90;;;;;;4891371;28;86682;-78
2022/10/18 05:54:16;;;;;;;4.28;1.25;;;12.70;99.90;;;;;;4892742;28;86277;-80
2022/10/18 05:56:41;;;;;;;6.63;1.50;;;12.70;99.90;;;;;;4904485;28;86956;-78
2022/10/18 05:59:10;;;;;;;9.23;1.50;;;12.80;99.90;;;;;;4894766;28;86160;-76
2022/10/18 06:01:37;;;;;;;7.15;1.67;;;12.80;99.90;;;;;;4891278;28;87079;-77
2022/10/18 06:04:04;;;;;;;14.13;1.65;;;12.90;99.90;;;;;;4894433;28;86281;-77
2022/10/18 06:06:30;;;;;;;5.18;1.58;;;13.00;99.90;;;;;;4881068;28;87797;-78
2022/10/18 06:08:56;;;;;;;7.93;1.83;;;13.00;99.90;;;;;;4890942;28;87070;-78
2022/10/18 06:11:22;;;;;;;8.15;2.00;;;13.00;99.90;;;;;;4884315;28;86885;-76
2022/10/18 06:13:50;;;;;;;4.50;1.85;;;13.00;99.90;;;;;;4881504;28;86605;-77
2022/10/18 06:16:17;;;;;;;9.95;1.63;;;13.10;99.90;;;;;;4894431;28;86944;-77
2022/10/18 06:18:48;;;;;;;7.38;1.52;;;13.10;99.90;;;;;;4883463;28;87810;-77
2022/10/18 06:21:13;;;;;;;8.73;1.80;;;13.30;99.90;;;;;;4892581;28;86773;-77
2022/10/18 06:23:40;;;;;;;9.98;2.03;;;13.10;99.90;;;;;;4884253;28;86495;-75
2022/10/18 06:26:08;;;;;;;9.80;2.00;;;13.10;99.90;;;;;;4892932;28;87788;-77
2022/10/18 06:28:35;;;;;;;7.90;1.60;;;13.10;99.90;;;;;;4883034;28;86779;-78
2022/10/18 06:31:02;;;;;;;15.80;3.00;;;13.20;99.90;;;;;;4886012;28;87962;-79
2022/10/18 06:33:29;;;;;;;116.57;8.68;;;13.60;99.90;;;;;;4882777;28;86695;-77
2022/10/18 06:35:58;;;;;;;9.27;1.65;;;14.30;99.90;;;;;;4882004;28;87218;-77
2022/10/18 06:38:24;;;;;;;3.50;1.15;;;14.40;99.90;;;;;;4879172;28;86778;-77
2022/10/18 06:40:50;;;;;;;10.55;1.35;;;15.30;99.90;;;;;;4885259;28;88489;-79
2022/10/18 06:43:16;;;;;;;7.05;1.60;;;15.70;99.90;;;;;;4900660;28;87042;-77
2022/10/18 06:45:41;;;;;;;9.65;2.00;;;16.30;99.20;;;;;;4890665;28;87172;-77
2022/10/18 06:48:07;;;;;;;6.30;1.80;;;16.30;98.00;;;;;;4892171;28;86308;-78
2022/10/18 06:50:33;;;;;;;11.05;2.25;;;16.00;96.30;;;;;;4898701;28;86967;-79
2022/10/18 06:52:58;;;;;;;3.60;1.58;;;15.40;97.70;;;;;;4897995;28;88157;-76
2022/10/18 06:55:24;;;;;;;8.73;2.35;;;15.00;99.90;;;;;;4894582;28;88797;-76
2022/10/18 06:57:50;;;;;;;7.15;1.75;;;14.80;99.90;;;;;;4895965;28;87905;-77
2022/10/18 07:00:15;;;;;;;10.63;1.85;;;14.90;99.20;;;;;;4887508;28;86967;-77
2022/10/18 07:02:41;;;;;;;7.90;1.55;;;15.20;98.10;;;;;;4885899;28;86695;-76
2022/10/18 07:05:08;;;;;;;5.65;1.30;;;15.40;95.30;;;;;;4894262;28;86593;-78
2022/10/18 07:07:34;;;;;;;9.68;1.77;;;15.50;95.10;;;;;;4885752;28;87612;-77
2022/10/18 07:09:59;;;;;;;6.28;1.40;;;15.40;93.90;;;;;;4888149;28;86842;-77
2022/10/18 07:12:25;;;;;;;7.57;1.48;;;15.50;95.20;;;;;;4883109;28;85843;-77
2022/10/18 07:14:50;;;;;;;7.38;1.40;;;15.90;93.90;;;;;;4889251;28;87294;-76
2022/10/18 07:17:16;;;;;;;3.70;1.20;;;16.60;92.10;;;;;;4885948;28;86361;-76
2022/10/18 07:19:42;;;;;;;4.85;1.45;;;17.30;89.00;;;;;;4888669;28;87503;-78
2022/10/18 07:22:07;;;;;;;3.58;1.27;;;17.30;88.50;;;;;;4886355;28;86418;-78
2022/10/18 07:24:33;;;;;;;5.00;0.98;;;17.20;87.50;;;;;;4891875;28;87243;-78
2022/10/18 07:26:59;;;;;;;4.65;1.23;;;17.30;87.60;;;;;;4889222;28;86989;-77
2022/10/18 07:29:24;;;;;;;8.43;1.42;;;17.20;85.60;;;;;;4885920;28;86960;-76
2022/10/18 07:31:50;;;;;;;8.88;1.35;;;17.50;85.00;;;;;;4883911;28;86945;-78
2022/10/18 07:34:15;;;;;;;6.80;2.08;;;17.20;85.00;;;;;;4883571;28;87295;-78
2022/10/18 07:36:41;;;;;;;3.35;1.42;;;17.10;88.60;;;;;;4886856;28;86978;-77
2022/10/18 07:39:07;;;;;;;6.40;0.77;;;16.90;88.70;;;;;;4884411;28;86327;-79
2022/10/18 07:41:33;;;;;;;8.82;1.00;;;17.10;84.80;;;;;;4883903;28;86758;-79
2022/10/18 07:43:59;;;;;;;6.47;1.52;;;17.60;86.10;;;;;;4883745;28;88488;-77
2022/10/18 07:46:25;;;;;;;7.85;1.10;;;19.30;81.30;;;;;;4882406;28;88769;-77
2022/10/18 07:48:51;;;;;;;6.25;1.00;;;21.10;78.60;;;;;;4885280;28;86250;-77
2022/10/18 07:51:18;;;;;;;7.85;1.30;;;21.60;69.90;;;;;;4888752;28;86565;-78
2022/10/18 07:53:44;;;;;;;6.00;1.63;;;20.90;68.60;;;;;;4886336;28;87141;-77
2022/10/18 07:56:15;;;;;;;9.85;1.35;;;19.90;70.30;;;;;;4885759;28;87032;-77
2022/10/18 07:58:42;;;;;;;8.40;1.42;;;19.20;72.80;;;;;;4889668;28;87193;-79
2022/10/18 08:01:08;;;;;;;7.03;1.30;;;18.70;74.50;;;;;;4893593;28;85961;-78
2022/10/18 08:03:35;;;;;;;9.30;1.30;;;18.50;75.40;;;;;;4888633;28;87550;-80
2022/10/18 08:06:01;;;;;;;8.43;3.08;;;18.40;77.60;;;;;;4892224;28;87334;-78
2022/10/18 08:08:28;;;;;;;8.75;3.08;;;18.40;82.60;;;;;;4888900;28;88130;-78
2022/10/18 08:10:54;;;;;;;15.18;3.50;;;18.70;83.60;;;;;;4884694;28;87703;-79
2022/10/18 08:13:20;;;;;;;10.55;3.38;;;18.90;83.10;;;;;;4887080;28;87219;-79
2022/10/18 08:15:46;;;;;;;10.43;4.10;;;18.90;83.80;;;;;;4882565;28;86438;-78
2022/10/18 08:18:12;;;;;;;6.43;3.13;;;19.30;83.30;;;;;;4888993;28;86963;-79
2022/10/18 08:20:46;;;;;;;9.93;2.63;;;19.80;83.40;;;;;;4884874;28;86349;-80
2022/10/18 08:23:12;;;;;;;5.75;2.33;;;21.90;81.00;;;;;;4887333;28;87584;-80
2022/10/18 08:25:38;;;;;;;8.98;2.38;;;25.60;69.20;;;;;;4897171;28;87550;-80
2022/10/18 08:28:04;;;;;;;4.78;2.95;;;28.50;65.20;;;;;;4895995;28;86610;-80
2022/10/18 08:30:29;;;;;;;7.55;2.25;;;30.60;56.20;;;;;;4898170;28;86663;-81
2022/10/18 08:32:55;;;;;;;6.53;4.18;;;32.20;51.70;;;;;;4893223;28;88244;-81
2022/10/18 08:35:21;;;;;;;8.13;2.45;;;33.50;49.00;;;;;;4896190;28;87765;-81
2022/10/18 08:37:47;;;;;;;15.73;3.53;;;34.90;46.90;;;;;;4894658;28;87562;-81
2022/10/18 08:40:14;;;;;;;7.55;3.67;;;34.70;45.10;;;;;;4889445;28;86633;-82
2022/10/18 08:43:05;;;;;;;6.43;2.95;;;34.10;44.20;;;;;;4897198;28;87129;-83
2022/10/18 08:45:36;;;;;;;6.38;2.33;;;33.10;46.10;;;;;;4892810;28;87029;-82
2022/10/18 08:48:04;;;;;;;10.13;3.42;;;34.40;42.80;;;;;;4882695;28;87102;-82
2022/10/18 08:50:34;;;;;;;;;;;32.40;43.80;;;;;;4886778;28;86246;-83
2022/10/18 08:53:11;;;;;;;10.75;3.00;;;30.70;46.50;;;;;;4890177;28;87317;-84
2022/10/18 08:55:51;;;;;;;15.30;2.78;;;33.50;41.90;;;;;;4895826;28;86787;-82
2022/10/18 08:58:21;;;;;;;8.18;2.20;;;33.30;39.10;;;;;;4896693;28;88540;-82
2022/10/18 09:01:07;;;;;;;9.68;2.15;;;32.20;43.50;;;;;;4888654;28;86305;-82
2022/10/18 09:04:03;;;;;;;5.80;3.50;;;33.50;41.70;;;;;;4852018;28;89117;-82
2022/10/18 09:06:55;;;;;;;6.70;3.10;;;34.80;37.00;;;;;;4897515;28;86939;-82
2022/10/18 09:09:32;;;;;;;7.13;2.47;;;34.90;38.20;;;;;;4868533;28;87480;-83
2022/10/18 09:12:04;;;;;;;6.35;2.50;;;33.30;38.60;;;;;;4897967;28;86619;-83
2022/10/18 09:14:54;;;;;;;7.63;2.10;;;34.80;38.50;;;;;;4889739;28;86824;-83
2022/10/18 09:17:55;;;;;;;8.48;2.15;;;35.30;36.90;;;;;;4897403;28;86449;-83
2022/10/18 09:20:27;;;;;;;3.72;2.47;;;35.00;36.80;;;;;;4888036;28;86458;-84
2022/10/18 09:23:08;;;;;;;7.28;2.45;;;34.30;38.30;;;;;;4893235;28;86457;-84
2022/10/18 09:25:34;;;;;;;10.18;2.22;;;34.60;38.20;;;;;;4896636;28;88721;-83
2022/10/18 09:28:31;;;;;;;12.10;3.42;;;35.20;38.00;;;;;;4896104;28;87859;-82
2022/10/18 09:31:03;;;;;;;5.53;4.15;;;38.20;37.90;;;;;;4895452;28;86613;-83
2022/10/18 09:33:45;;;;;;;5.82;3.85;;;40.50;36.20;;;;;;4893519;28;86732;-84
2022/10/18 09:36:19;;;;;;;5.70;4.63;;;42.10;35.20;;;;;;4897491;28;87236;-81
2022/10/18 09:38:51;;;;;;;8.85;4.18;;;42.60;34.40;;;;;;4896173;28;87048;-81
2022/10/18 09:41:19;;;;;;;8.68;3.83;;;43.30;32.80;;;;;;4883678;28;86870;-81
2022/10/18 09:43:51;;;;;;;;;;;43.40;33.30;;;;;;4894647;28;85820;-81
2022/10/18 09:46:20;;;;;;;7.82;3.75;;;42.20;33.50;;;;;;4899104;28;87606;-81
2022/10/18 09:48:54;;;;;;;5.45;3.42;;;40.20;33.60;;;;;;4895038;28;87013;-82
2022/10/18 09:51:23;;;;;;;6.15;2.97;;;40.20;31.80;;;;;;4889681;28;87224;-82
2022/10/18 09:54:04;;;;;;;4.55;2.47;;;40.20;32.30;;;;;;4893715;28;86311;-81
2022/10/18 09:56:30;;;;;;;;;;;42.10;31.10;;;;;;4887188;28;86975;-82
2022/10/18 09:58:55;;;;;;;4.18;3.03;;;42.90;30.50;;;;;;4891602;28;86681;-81
2022/10/18 10:01:25;;;;;;;5.43;3.42;;;41.90;31.00;;;;;;4896468;28;86215;-81
2022/10/18 10:03:51;;;;;;;7.05;3.47;;;41.50;30.10;;;;;;4893097;28;86745;-83
2022/10/18 10:06:26;;;;;;;8.48;5.35;;;40.80;33.20;;;;;;4893620;28;86966;-82
2022/10/18 10:09:13;;;;;;;10.00;5.88;;;38.50;37.20;;;;;;4887944;28;87038;-82
2022/10/18 10:11:47;;;;;;;10.25;5.50;;;35.50;41.70;;;;;;4884446;28;86518;-80
2022/10/18 10:14:25;;;;;;;7.93;3.97;;;34.60;43.00;;;;;;4887803;28;86759;-81
2022/10/18 10:16:51;;;;;;;8.68;4.35;;;36.20;40.50;;;;;;4876771;28;91534;-80
2022/10/18 10:19:31;;;;;;;7.03;4.47;;;35.50;41.00;;;;;;4877975;28;87587;-81
2022/10/18 10:22:10;;;;;;;4.90;3.65;;;33.40;43.50;;;;;;4883862;28;87673;-80
2022/10/18 10:24:47;;;;;;;6.75;4.05;;;30.10;50.00;;;;;;4881272;28;86266;-79
2022/10/18 10:27:28;;;;;;;7.03;4.55;;;27.70;53.40;;;;;;4880842;28;87141;-79
2022/10/18 10:29:56;;;;;;;8.85;3.47;;;26.60;56.20;;;;;;4885984;28;86408;-81
2022/10/18 10:32:25;;;;;;;7.68;3.45;;;26.50;55.90;;;;;;4890982;28;87075;-81
2022/10/18 10:34:52;;;;;;;7.35;3.20;;;25.90;57.20;;;;;;4889352;28;86770;-82
2022/10/18 10:37:33;;;;;;;6.28;3.22;;;25.50;57.20;;;;;;4882584;28;86913;-80
2022/10/18 10:40:04;;;;;;;9.57;3.97;;;24.50;61.80;;;;;;4885647;28;86937;-80
2022/10/18 10:42:32;;;;;;;7.75;3.30;;;23.40;66.00;;;;;;4882167;28;87284;-81
2022/10/18 10:45:00;;;;;;;7.35;5.10;;;23.20;65.80;;;;;;4885721;28;86628;-80
2022/10/18 10:47:30;;;;;;;8.18;4.20;;;22.90;67.80;;;;;;4882464;28;87116;-81
2022/10/18 10:49:56;;;;;;;9.15;3.67;;;22.60;69.50;;;;;;4888006;28;86452;-80
2022/10/18 10:52:26;;;;;;;5.15;2.95;;;22.40;71.30;;;;;;4880402;28;86794;-83
2022/10/18 10:54:53;;;;;;;7.30;3.40;;;22.00;71.20;;;;;;4867821;28;86460;-81
2022/10/18 10:57:26;;;;;;;10.38;3.05;;;21.90;71.30;;;;;;4880829;28;87113;-81
2022/10/18 10:59:55;;;;;;;8.90;3.42;;;21.80;73.30;;;;;;4882311;28;86878;-82
2022/10/18 11:02:32;;;;;;;14.80;4.60;;;21.40;74.70;;;;;;4882207;28;86951;-80
2022/10/18 11:05:21;;;;;;;7.82;3.50;;;21.80;72.50;;;;;;4893716;28;86996;-80
2022/10/18 11:07:50;;;;;;;6.75;3.53;;;21.60;71.90;;;;;;4888485;28;88099;-80
2022/10/18 11:10:20;;;;;;;7.18;3.72;;;21.50;72.20;;;;;;4894399;28;87042;-81
2022/10/18 11:13:01;;;;;;;13.23;4.15;;;21.40;73.80;;;;;;4884670;28;86263;-80
2022/10/18 11:15:37;;;;;;;6.65;3.70;;;21.00;75.70;;;;;;4887078;28;86450;-81
2022/10/18 11:18:24;;;;;;;7.95;3.65;;;20.80;76.00;;;;;;4892974;28;87180;-81
2022/10/18 11:21:06;;;;;;;7.05;3.03;;;21.10;74.70;;;;;;4889771;28;86815;-80
2022/10/18 11:23:35;;;;;;;7.65;3.30;;;21.30;73.70;;;;;;4887198;28;87190;-80
2022/10/18 11:26:10;;;;;;;7.28;3.03;;;21.50;74.40;;;;;;4884368;28;86267;-80
2022/10/18 11:28:57;;;;;;;5.30;3.15;;;21.60;74.60;;;;;;4886630;28;88099;-81
2022/10/18 11:31:40;;;;;;;7.65;3.65;;;21.60;72.50;;;;;;4884422;28;88852;-81
2022/10/18 11:34:30;;;;;;;10.02;4.18;;;21.60;73.10;;;;;;4899685;28;88193;-82
2022/10/18 11:37:31;;;;;;;7.45;3.35;;;21.30;73.70;;;;;;4885949;28;86900;-82
2022/10/18 11:40:02;;;;;;;7.93;2.78;;;21.20;73.10;;;;;;4879520;28;87261;-82
2022/10/18 11:42:40;;;;;;;4.82;2.70;;;21.30;71.60;;;;;;4886024;28;88491;-80
2022/10/18 11:45:21;;;;;;;8.55;2.75;;;21.30;71.90;;;;;;4881263;28;87305;-81
2022/10/18 11:48:22;;;;;;;5.95;2.95;;;21.40;72.00;;;;;;4887389;28;86894;-81
2022/10/18 11:51:13;;;;;;;6.78;2.60;;;21.60;71.60;;;;;;4883667;28;86770;-80
2022/10/18 11:54:16;;;;;;;5.75;2.88;;;22.10;70.60;;;;;;4893888;28;87498;-80
2022/10/18 11:56:49;;;;;;;7.10;3.28;;;22.30;71.00;;;;;;4884854;28;87117;-80
2022/10/18 11:59:21;;;;;;;6.47;2.92;;;22.70;69.50;;;;;;4895292;28;86960;-79
2022/10/18 12:02:24;;;;;;;7.78;2.53;;;22.60;69.00;;;;;;4893520;28;88700;-81
2022/10/18 12:04:55;;;;;;;6.43;2.70;;;22.80;66.20;;;;;;4894586;28;88083;-79
2022/10/18 12:07:22;;;;;;;9.15;3.10;;;22.70;67.40;;;;;;4892295;28;86787;-80
2022/10/18 12:09:50;;;;;;;8.20;2.63;;;22.70;66.70;;;;;;4892140;28;86312;-80
2022/10/18 12:12:38;;;;;;;7.15;3.00;;;22.50;67.80;;;;;;4895307;28;87139;-80
2022/10/18 12:15:23;;;;;;;8.45;2.58;;;22.40;67.40;;;;;;4893778;28;86748;-80
2022/10/18 12:17:54;;;;;;;7.97;2.38;;;22.30;66.40;;;;;;4896443;28;86380;-80
2022/10/18 12:20:24;;;;;;;9.30;3.88;;;22.40;67.10;;;;;;4897107;28;85694;-79
2022/10/18 12:23:10;;;;;;;7.68;2.42;;;22.50;66.60;;;;;;4894013;28;88601;-81
2022/10/18 12:25:40;;;;;;;7.43;2.78;;;22.60;65.70;;;;;;4895206;28;87380;-80
2022/10/18 12:28:33;;;;;;;6.78;2.60;;;22.50;65.40;;;;;;4895619;28;87728;-80
2022/10/18 12:31:23;;;;;;;6.32;2.20;;;22.50;65.70;;;;;;4894952;28;86662;-81
2022/10/18 12:34:18;;;;;;;8.50;2.28;;;22.60;65.60;;;;;;4896649;28;86742;-81
2022/10/18 12:37:21;;;;;;;7.00;1.88;;;22.70;65.20;;;;;;4897481;28;86689;-79
2022/10/18 12:40:01;;;;;;;9.02;1.90;;;22.80;64.90;;;;;;4887579;28;86275;-80
2022/10/18 12:42:30;;;;;;;4.03;1.52;;;23.00;62.50;;;;;;4891917;28;86208;-80
2022/10/18 12:45:04;;;;;;;9.57;1.80;;;22.90;63.00;;;;;;4888752;28;87034;-80
2022/10/18 12:47:31;;;;;;;7.03;2.13;;;22.60;63.50;;;;;;4893723;28;89144;-80
2022/10/18 12:50:23;;;;;;;4.15;2.30;;;22.50;64.30;;;;;;4891625;28;86953;-81
2022/10/18 12:53:23;;;;;;;6.25;1.90;;;22.30;64.60;;;;;;4888462;28;86410;-80
2022/10/18 12:55:50;;;;;;;6.57;1.80;;;22.20;66.40;;;;;;4879098;28;88311;-80
2022/10/18 12:58:31;;;;;;;8.00;1.92;;;22.20;68.00;;;;;;4880350;28;87371;-80
2022/10/18 13:01:07;;;;;;;4.70;1.80;;;22.40;66.20;;;;;;4891191;28;86338;-80
2022/10/18 13:03:40;;;;;;;6.65;1.98;;;22.50;68.60;;;;;;4890567;28;87143;-80
2022/10/18 13:06:06;;;;;;;7.25;2.40;;;22.50;67.90;;;;;;4888668;28;87308;-80
2022/10/18 13:08:40;;;;;;;3.83;1.80;;;22.60;67.40;;;;;;4894751;28;86482;-80
2022/10/18 13:11:09;;;;;;;9.00;2.00;;;22.80;67.50;;;;;;4894261;28;86246;-80
2022/10/18 13:13:53;;;;;;;6.22;2.05;;;22.80;66.90;;;;;;4890630;28;86258;-80
2022/10/18 13:16:44;;;;;;;6.95;1.23;;;22.80;66.70;;;;;;4895727;28;87726;-80
2022/10/18 13:19:34;;;;;;;8.50;1.73;;;22.90;64.60;;;;;;4883954;28;87336;-79
2022/10/18 13:22:17;;;;;;;3.40;1.58;;;22.80;65.10;;;;;;4882394;28;88103;-80
2022/10/18 13:25:14;;;;;;;6.07;1.48;;;22.80;65.00;;;;;;4884057;28;86585;-81
2022/10/18 13:27:51;;;;;;;4.13;1.83;;;22.60;65.40;;;;;;4883371;28;87013;-79
2022/10/18 13:30:31;;;;;;;5.80;1.75;;;22.60;65.20;;;;;;4884287;28;87451;-79
2022/10/18 13:33:07;;;;;;;5.43;1.88;;;22.50;65.40;;;;;;4885942;28;86426;-80
2022/10/18 13:35:54;;;;;;;8.32;1.38;;;22.50;65.40;;;;;;4886803;28;87342;-80
2022/10/18 13:38:32;;;;;;;6.32;1.67;;;22.30;66.40;;;;;;4882951;28;87235;-80
2022/10/18 13:41:07;;;;;;;8.10;1.48;;;22.10;68.20;;;;;;4887823;28;86420;-80
2022/10/18 13:43:51;;;;;;;4.30;1.33;;;22.40;67.10;;;;;;4888639;28;87149;-80
2022/10/18 13:46:43;;;;;;;4.55;1.63;;;22.80;65.30;;;;;;4881433;28;87079;-81
2022/10/18 13:49:21;;;;;;;3.85;1.58;;;22.90;66.00;;;;;;4883897;28;87755;-81
2022/10/18 13:52:11;;;;;;;5.57;1.50;;;23.10;65.10;;;;;;4883076;28;87615;-82
2022/10/18 13:54:59;;;;;;;6.10;1.55;;;22.90;65.30;;;;;;4887631;28;87298;-80
2022/10/18 13:57:43;;;;;;;19.90;1.80;;;22.90;65.40;;;;;;4887390;28;86876;-80
2022/10/18 14:00:31;;;;;;;4.40;1.30;;;23.00;67.00;;;;;;4887883;28;87031;-80
2022/10/18 14:03:11;;;;;;;4.72;2.30;;;22.80;67.20;;;;;;4887914;28;87499;-80
2022/10/18 14:06:11;;;;;;;8.15;1.58;;;22.60;67.20;;;;;;4886837;28;86891;-81
2022/10/18 14:08:51;;;;;;;6.53;1.30;;;22.50;67.40;;;;;;4873825;28;85912;-81
2022/10/18 14:11:28;;;;;;;7.75;1.80;;;22.40;66.90;;;;;;4890495;28;87478;-81
2022/10/18 14:14:33;;;;;;;4.05;2.13;;;22.30;67.60;;;;;;4888354;28;86753;-79
2022/10/18 14:17:03;;;;;;;6.50;1.60;;;22.30;67.70;;;;;;4885994;28;87779;-80
2022/10/18 14:19:47;;;;;;;6.60;1.92;;;22.20;67.50;;;;;;4888865;28;86758;-80
2022/10/18 14:22:19;;;;;;;8.02;1.65;;;22.20;67.40;;;;;;4892677;28;86721;-80
2022/10/18 14:24:49;;;;;;;3.35;1.13;;;22.00;68.20;;;;;;4890343;28;86289;-80
2022/10/18 14:27:26;;;;;;;4.75;1.50;;;22.00;68.70;;;;;;4882752;28;86906;-80
2022/10/18 14:30:16;;;;;;;6.22;1.95;;;21.90;68.60;;;;;;4885177;28;86403;-80
2022/10/18 14:32:53;;;;;;;7.88;1.80;;;21.80;70.80;;;;;;4884726;28;87150;-80
2022/10/18 14:35:31;;;;;;;43.97;4.43;;;21.60;69.70;;;;;;4882043;28;86978;-81
2022/10/18 14:37:57;;;;;;;9.60;3.05;;;21.60;70.60;;;;;;4890360;28;86363;-80
2022/10/18 14:40:39;;;;;;;10.82;1.45;;;21.40;70.70;;;;;;4885836;28;86300;-80
2022/10/18 14:43:13;;;;;;;8.13;1.88;;;21.40;70.70;;;;;;4881308;28;89315;-79
2022/10/18 14:45:40;;;;;;;5.60;1.40;;;21.30;70.40;;;;;;4888596;28;87161;-80
2022/10/18 14:48:19;;;;;;;3.67;1.50;;;21.40;70.70;;;;;;4882573;28;87627;-79
2022/10/18 14:50:48;;;;;;;4.72;1.45;;;21.50;70.00;;;;;;4890082;28;88095;-79
2022/10/18 14:53:17;;;;;;;5.20;1.50;;;21.60;70.40;;;;;;4890922;28;87303;-80
2022/10/18 14:55:53;;;;;;;5.90;1.58;;;21.70;70.00;;;;;;4895963;28;87595;-79
2022/10/18 14:58:19;;;;;;;5.00;1.13;;;21.60;70.50;;;;;;4890699;28;86296;-79
2022/10/18 15:00:46;;;;;;;4.20;1.30;;;21.60;69.90;;;;;;4894584;28;86020;-79
2022/10/18 15:03:14;;;;;;;5.90;1.20;;;21.70;69.50;;;;;;4892310;28;86545;-80
2022/10/18 15:05:55;;;;;;;10.50;1.58;;;21.60;70.50;;;;;;4900780;28;86730;-79
2022/10/18 15:08:22;;;;;;;9.43;2.28;;;21.70;69.70;;;;;;4893178;28;88215;-80
2022/10/18 15:10:48;;;;;;;10.98;2.08;;;21.60;70.30;;;;;;4895129;28;86666;-79
2022/10/18 15:13:15;;;;;;;5.72;0.93;;;21.60;70.50;;;;;;4894417;28;88679;-79
2022/10/18 15:15:42;;;;;;;7.05;1.75;;;21.70;70.80;;;;;;4886504;28;86968;-79
2022/10/18 15:18:21;;;;;;;7.32;1.65;;;21.60;70.10;;;;;;4889072;28;86787;-79
2022/10/18 15:21:18;;;;;;;4.10;1.38;;;21.50;70.40;;;;;;4886028;28;87095;-79
2022/10/18 15:23:43;;;;;;;4.70;1.58;;;21.60;70.30;;;;;;4893694;28;87734;-80
2022/10/18 15:26:14;;;;;;;10.85;1.88;;;21.70;70.40;;;;;;4889673;28;88685;-79
2022/10/18 15:28:52;;;;;;;4.97;1.50;;;21.70;69.70;;;;;;4890551;28;87086;-79
2022/10/18 15:31:28;;;;;;;8.32;1.55;;;21.70;70.10;;;;;;4884793;28;86370;-79
2022/10/18 15:34:23;;;;;;;7.68;1.98;;;21.60;71.00;;;;;;4890596;28;87663;-79
2022/10/18 15:36:50;;;;;;;8.45;2.15;;;21.60;70.60;;;;;;4887308;28;88277;-79
2022/10/18 15:39:20;;;;;;;5.93;1.70;;;21.60;70.90;;;;;;4885874;28;86817;-80
2022/10/18 15:41:54;;;;;;;6.63;1.52;;;21.40;71.50;;;;;;4889603;28;87331;-80
2022/10/18 15:44:33;;;;;;;6.35;1.92;;;21.30;71.90;;;;;;4885875;28;87172;-79
2022/10/18 15:47:12;;;;;;;7.75;1.85;;;21.30;72.20;;;;;;4889792;28;86828;-79
2022/10/18 15:49:44;;;;;;;5.78;1.17;;;21.30;72.70;;;;;;4886178;28;88109;-79
2022/10/18 15:52:28;;;;;;;4.25;1.55;;;21.20;73.70;;;;;;4886265;28;86141;-79
2022/10/18 15:54:54;;;;;;;6.25;1.77;;;21.20;74.00;;;;;;4884808;28;87300;-79
2022/10/18 15:57:19;;;;;;;5.10;1.23;;;21.00;75.10;;;;;;4889035;28;87387;-80